Time;durP1;ratioP1;P1;durP2;ratioP2;P2;SDS_P1;SDS_P2;PMS_P1;PMS_P2;Temp;Humidity;BMP_temperature;BMP_pressure;BME280_temperature;BME280_humidity;BME280_pressure;Samples;Min_cycle;Max_cycle;Signal;HPM_P1;HPM_P2
2022/03/03 00:01:42;;;;;;;6.90;4.00;;;;;;;;;;5086713;28;20037;-70
2022/03/03 00:04:08;;;;;;;10.57;4.10;;;;;;;;;;5095433;28;20024;-70
2022/03/03 00:06:35;;;;;;;8.63;4.20;;;;;;;;;;5094099;28;20039;-71
2022/03/03 00:09:01;;;;;;;6.00;3.63;;;;;;;;;;5095559;28;20031;-70
2022/03/03 00:11:27;;;;;;;8.52;4.03;;;;;;;;;;5095188;28;20081;-71
2022/03/03 00:13:53;;;;;;;13.90;4.20;;;;;;;;;;5095113;28;20465;-71
2022/03/03 00:16:19;;;;;;;9.48;4.00;;;;;;;;;;5094121;28;20077;-70
2022/03/03 00:18:45;;;;;;;7.65;3.60;;;;;;;;;;5095443;28;20386;-71
2022/03/03 00:21:11;;;;;;;9.40;3.63;;;;;;;;;;5094854;28;20055;-72
2022/03/03 00:23:37;;;;;;;11.00;4.00;;;;;;;;;;5095361;28;20107;-71
2022/03/03 00:26:03;;;;;;;6.30;4.18;;;;;;;;;;5095023;28;20493;-71
2022/03/03 00:28:29;;;;;;;5.13;3.95;;;;;;;;;;5094627;28;20020;-71
2022/03/03 00:30:55;;;;;;;7.28;4.40;;;;;;;;;;5093575;28;20073;-72
2022/03/03 00:33:21;;;;;;;7.07;3.50;;;;;;;;;;5093730;28;20036;-70
2022/03/03 00:35:47;;;;;;;9.35;4.20;;;;;;;;;;5075978;28;20020;-72
2022/03/03 00:38:14;;;;;;;4.80;3.78;;;;;;;;;;5094255;28;20379;-71
2022/03/03 00:40:40;;;;;;;6.60;3.95;;;;;;;;;;5093915;28;20031;-70
2022/03/03 00:43:06;;;;;;;6.07;4.00;;;;;;;;;;5093875;28;20024;-71
2022/03/03 00:45:33;;;;;;;6.55;4.60;;;;;;;;;;5094359;28;20024;-70
2022/03/03 00:47:59;;;;;;;9.02;4.45;;;;;;;;;;5070793;28;20039;-72
2022/03/03 00:50:25;;;;;;;7.72;4.13;;;;;;;;;;5075625;28;20496;-70
2022/03/03 00:52:51;;;;;;;5.25;3.90;;;;;;;;;;5093509;28;20028;-69
2022/03/03 00:55:18;;;;;;;7.95;3.30;;;;;;;;;;5093651;28;20050;-70
2022/03/03 00:57:44;;;;;;;5.43;3.75;;;;;;;;;;5093709;28;20032;-69
2022/03/03 01:00:10;;;;;;;5.40;4.28;;;;;;;;;;5093825;28;20024;-70
2022/03/03 01:02:36;;;;;;;8.98;4.03;;;;;;;;;;5093433;28;20028;-70
2022/03/03 01:05:03;;;;;;;13.50;3.95;;;;;;;;;;5076048;28;20050;-71
2022/03/03 01:07:29;;;;;;;6.22;3.70;;;;;;;;;;5094449;28;20050;-70
2022/03/03 01:09:55;;;;;;;9.73;3.90;;;;;;;;;;5094257;28;20082;-71
2022/03/03 01:12:21;;;;;;;7.38;4.07;;;;;;;;;;5093964;28;20031;-71
2022/03/03 01:14:47;;;;;;;8.77;3.97;;;;;;;;;;5093940;28;20028;-70
2022/03/03 01:17:14;;;;;;;7.65;4.13;;;;;;;;;;5093928;28;20024;-70
2022/03/03 01:19:40;;;;;;;10.20;4.07;;;;;;;;;;5094201;28;20077;-69
2022/03/03 01:22:06;;;;;;;9.32;3.95;;;;;;;;;;5073906;28;20033;-70
2022/03/03 01:24:32;;;;;;;9.23;3.83;;;;;;;;;;5073816;28;20063;-70
2022/03/03 01:26:58;;;;;;;6.00;3.60;;;;;;;;;;5074121;28;20107;-70
2022/03/03 01:29:25;;;;;;;4.85;3.90;;;;;;;;;;5073442;28;20058;-70
2022/03/03 01:31:51;;;;;;;6.68;3.53;;;;;;;;;;5073213;28;20028;-71
2022/03/03 01:34:17;;;;;;;13.95;3.90;;;;;;;;;;5074003;28;20024;-69
2022/03/03 01:36:43;;;;;;;6.95;4.45;;;;;;;;;;5073699;28;20388;-71
2022/03/03 01:39:09;;;;;;;8.65;4.40;;;;;;;;;;5088459;28;20024;-69
2022/03/03 01:41:36;;;;;;;12.05;3.90;;;;;;;;;;5093621;28;20518;-69
2022/03/03 01:44:02;;;;;;;5.43;3.80;;;;;;;;;;5093790;28;20028;-71
2022/03/03 01:46:28;;;;;;;9.30;4.50;;;;;;;;;;5093757;28;20046;-70
2022/03/03 01:48:54;;;;;;;4.63;3.60;;;;;;;;;;5093673;28;20414;-70
2022/03/03 01:51:20;;;;;;;15.65;4.30;;;;;;;;;;5092877;28;20024;-70
2022/03/03 01:53:46;;;;;;;15.32;4.07;;;;;;;;;;5093430;28;20448;-70
2022/03/03 01:56:13;;;;;;;6.10;4.15;;;;;;;;;;5093015;28;20120;-70
2022/03/03 01:58:39;;;;;;;6.55;3.90;;;;;;;;;;5075161;28;20064;-71
2022/03/03 02:01:05;;;;;;;17.40;4.28;;;;;;;;;;5072459;28;20072;-68
2022/03/03 02:03:31;;;;;;;16.70;4.38;;;;;;;;;;5072627;28;20107;-72
2022/03/03 02:05:57;;;;;;;26.85;4.57;;;;;;;;;;5072683;28;20020;-68
2022/03/03 02:08:23;;;;;;;8.63;4.70;;;;;;;;;;5072662;28;20020;-68
2022/03/03 02:10:51;;;;;;;19.80;4.70;;;;;;;;;;5072307;28;20498;-68
2022/03/03 02:13:17;;;;;;;14.15;4.38;;;;;;;;;;5072193;28;20036;-69
2022/03/03 02:15:53;;;;;;;6.05;4.10;;;;;;;;;;5074559;28;20024;-68
2022/03/03 02:18:19;;;;;;;11.45;4.07;;;;;;;;;;5092675;28;20028;-69
2022/03/03 02:20:45;;;;;;;12.43;4.28;;;;;;;;;;5092521;28;20144;-70
2022/03/03 02:23:11;;;;;;;10.65;4.60;;;;;;;;;;5092792;28;20021;-71
2022/03/03 02:25:37;;;;;;;11.90;4.40;;;;;;;;;;5091963;28;20031;-70
2022/03/03 02:28:03;;;;;;;8.32;4.03;;;;;;;;;;5075358;28;20032;-69
2022/03/03 02:30:29;;;;;;;6.53;3.88;;;;;;;;;;5092287;28;20028;-69
2022/03/03 02:32:56;;;;;;;7.40;4.07;;;;;;;;;;5091679;28;20069;-70
2022/03/03 02:35:22;;;;;;;4.05;3.65;;;;;;;;;;5074426;28;20032;-72
2022/03/03 02:37:48;;;;;;;7.55;4.03;;;;;;;;;;5093497;28;20020;-72
2022/03/03 02:40:20;;;;;;;5.10;3.95;;;;;;;;;;5093220;28;20027;-73
2022/03/03 02:42:55;;;;;;;6.70;4.43;;;;;;;;;;5094097;28;20391;-70
2022/03/03 02:45:22;;;;;;;4.60;4.03;;;;;;;;;;5105071;28;20253;-72
2022/03/03 02:47:48;;;;;;;6.00;4.15;;;;;;;;;;5092304;28;20032;-69
2022/03/03 02:50:16;;;;;;;7.70;3.90;;;;;;;;;;5092452;28;20020;-69
2022/03/03 02:52:42;;;;;;;6.07;4.35;;;;;;;;;;5092509;28;20082;-70
2022/03/03 02:55:08;;;;;;;4.88;4.15;;;;;;;;;;5092773;28;20065;-73
2022/03/03 03:00:21;;;;;;;7.47;4.05;;;;;;;;;;5093191;28;20031;-71
2022/03/03 03:02:47;;;;;;;5.72;3.85;;;;;;;;;;5093581;28;20097;-72
2022/03/03 03:05:13;;;;;;;9.00;4.40;;;;;;;;;;5096779;28;20031;-68
2022/03/03 03:07:39;;;;;;;4.82;3.88;;;;;;;;;;5096010;28;20032;-69
2022/03/03 03:10:06;;;;;;;6.43;4.10;;;;;;;;;;5095950;28;20052;-69
2022/03/03 03:12:32;;;;;;;8.18;4.03;;;;;;;;;;5095665;28;20016;-69
2022/03/03 03:14:58;;;;;;;12.43;3.97;;;;;;;;;;5095209;28;20463;-69
2022/03/03 03:17:24;;;;;;;5.93;3.90;;;;;;;;;;5095810;28;20016;-69
2022/03/03 03:19:50;;;;;;;11.07;4.32;;;;;;;;;;5095696;28;20024;-70
2022/03/03 03:22:16;;;;;;;7.50;4.10;;;;;;;;;;5095750;28;20067;-69
2022/03/03 03:24:42;;;;;;;8.27;3.63;;;;;;;;;;5095755;28;20024;-66
2022/03/03 03:27:09;;;;;;;4.85;3.50;;;;;;;;;;5095688;28;20032;-68
2022/03/03 03:29:35;;;;;;;8.70;3.88;;;;;;;;;;5094448;28;20016;-67
2022/03/03 03:32:00;;;;;;;8.65;3.50;;;;;;;;;;5095013;28;20022;-67
2022/03/03 03:34:26;;;;;;;5.53;3.92;;;;;;;;;;5095786;28;20024;-70
2022/03/03 03:36:52;;;;;;;3.95;3.55;;;;;;;;;;5095704;28;20024;-68
2022/03/03 03:39:18;;;;;;;6.88;3.75;;;;;;;;;;5095852;28;20028;-69
2022/03/03 03:41:44;;;;;;;4.95;4.13;;;;;;;;;;5094081;28;20032;-69
2022/03/03 03:44:11;;;;;;;6.80;3.92;;;;;;;;;;5095458;28;20038;-69
2022/03/03 03:46:37;;;;;;;5.72;3.80;;;;;;;;;;5094102;28;20332;-70
2022/03/03 03:49:05;;;;;;;4.88;4.10;;;;;;;;;;5094907;28;20027;-69
2022/03/03 03:51:31;;;;;;;5.30;4.07;;;;;;;;;;5095025;28;20034;-68
2022/03/03 03:53:57;;;;;;;7.47;3.95;;;;;;;;;;5077036;28;20115;-70
2022/03/03 03:56:23;;;;;;;7.72;4.22;;;;;;;;;;5095462;28;20107;-70
2022/03/03 03:58:50;;;;;;;7.32;4.30;;;;;;;;;;5096017;28;20035;-69
2022/03/03 04:01:16;;;;;;;8.48;4.13;;;;;;;;;;5094845;28;20483;-69
2022/03/03 04:03:42;;;;;;;7.05;3.95;;;;;;;;;;5076832;28;20028;-70
2022/03/03 04:06:08;;;;;;;9.85;4.13;;;;;;;;;;5078520;28;20039;-69
2022/03/03 04:08:34;;;;;;;5.82;3.97;;;;;;;;;;5094930;28;20016;-69
2022/03/03 04:11:02;;;;;;;9.45;4.20;;;;;;;;;;5094724;28;20016;-69
2022/03/03 04:13:28;;;;;;;7.95;4.25;;;;;;;;;;5094617;28;20043;-69
2022/03/03 04:15:54;;;;;;;8.25;4.13;;;;;;;;;;5093526;28;20047;-68
2022/03/03 04:18:20;;;;;;;5.78;4.20;;;;;;;;;;5094827;28;20039;-69
2022/03/03 04:20:46;;;;;;;5.30;3.85;;;;;;;;;;5094320;28;20040;-68
2022/03/03 04:23:12;;;;;;;4.93;4.18;;;;;;;;;;5094053;28;20111;-69
2022/03/03 04:25:38;;;;;;;8.38;4.85;;;;;;;;;;5094768;28;20112;-69
2022/03/03 04:28:04;;;;;;;4.82;4.00;;;;;;;;;;5094932;28;20054;-69
2022/03/03 04:30:30;;;;;;;7.40;4.20;;;;;;;;;;5093447;28;20020;-69
2022/03/03 04:32:57;;;;;;;4.60;3.95;;;;;;;;;;5094133;28;20031;-70
2022/03/03 04:35:23;;;;;;;5.57;4.35;;;;;;;;;;5090030;28;20016;-71
2022/03/03 04:37:50;;;;;;;4.32;3.90;;;;;;;;;;5094579;28;20074;-67
2022/03/03 04:40:16;;;;;;;6.05;4.38;;;;;;;;;;5094449;28;20028;-67
2022/03/03 04:42:42;;;;;;;5.50;4.30;;;;;;;;;;5094203;28;20032;-69
2022/03/03 04:45:08;;;;;;;5.03;3.97;;;;;;;;;;5093920;28;20020;-68
2022/03/03 04:47:34;;;;;;;4.70;3.95;;;;;;;;;;5094188;28;20035;-70
2022/03/03 04:50:00;;;;;;;4.78;4.18;;;;;;;;;;5094132;28;20031;-69
2022/03/03 04:52:26;;;;;;;5.18;3.90;;;;;;;;;;5075768;28;20024;-70
2022/03/03 04:54:52;;;;;;;6.00;3.90;;;;;;;;;;5094240;28;20103;-68
2022/03/03 04:57:18;;;;;;;6.45;4.32;;;;;;;;;;5093647;28;20417;-71
2022/03/03 04:59:44;;;;;;;4.45;3.40;;;;;;;;;;5093949;28;20039;-69
2022/03/03 05:02:10;;;;;;;4.22;3.83;;;;;;;;;;5093920;28;20617;-70
2022/03/03 05:04:36;;;;;;;5.18;4.32;;;;;;;;;;5094193;28;20024;-70
2022/03/03 05:07:02;;;;;;;5.65;3.65;;;;;;;;;;5093959;28;20028;-68
2022/03/03 05:09:28;;;;;;;4.53;4.00;;;;;;;;;;5094277;28;20034;-70
2022/03/03 05:11:54;;;;;;;4.72;3.67;;;;;;;;;;5075575;28;20028;-70
2022/03/03 05:14:20;;;;;;;5.07;3.90;;;;;;;;;;5093625;28;20106;-70
2022/03/03 05:16:46;;;;;;;9.60;5.03;;;;;;;;;;5093971;28;20503;-70
2022/03/03 05:19:12;;;;;;;10.25;4.03;;;;;;;;;;5075717;28;20031;-71
2022/03/03 05:21:38;;;;;;;4.15;3.75;;;;;;;;;;5073276;28;20051;-71
2022/03/03 05:24:04;;;;;;;4.85;3.60;;;;;;;;;;5075434;28;20368;-70
2022/03/03 05:26:30;;;;;;;4.53;3.67;;;;;;;;;;5093136;28;20024;-71
2022/03/03 05:28:56;;;;;;;4.28;3.88;;;;;;;;;;5093485;28;20428;-71
2022/03/03 05:31:22;;;;;;;6.55;3.53;;;;;;;;;;5093006;28;20107;-70
2022/03/03 05:33:49;;;;;;;7.50;3.97;;;;;;;;;;5093133;28;20055;-70
2022/03/03 05:36:15;;;;;;;6.10;3.30;;;;;;;;;;5093328;28;20028;-71
2022/03/03 05:38:41;;;;;;;5.22;3.67;;;;;;;;;;5093314;28;20151;-69
2022/03/03 05:41:08;;;;;;;7.18;3.88;;;;;;;;;;5092654;28;20672;-70
2022/03/03 05:43:35;;;;;;;4.45;4.00;;;;;;;;;;5092628;28;20016;-68
2022/03/03 05:46:01;;;;;;;4.95;3.95;;;;;;;;;;5092788;28;20032;-69
2022/03/03 05:48:28;;;;;;;4.18;3.78;;;;;;;;;;5093098;28;20046;-72
2022/03/03 05:50:54;;;;;;;4.88;3.45;;;;;;;;;;5093152;28;20055;-69
2022/03/03 05:53:21;;;;;;;8.32;3.70;;;;;;;;;;5093127;28;20036;-69
2022/03/03 05:55:49;;;;;;;8.10;3.50;;;;;;;;;;5092874;28;20043;-69
2022/03/03 05:58:21;;;;;;;6.63;3.80;;;;;;;;;;5092903;28;20462;-72
2022/03/03 06:00:49;;;;;;;3.77;3.40;;;;;;;;;;5092820;28;20024;-69
2022/03/03 06:03:17;;;;;;;6.70;3.58;;;;;;;;;;5092897;28;20028;-70
2022/03/03 06:05:46;;;;;;;4.85;3.58;;;;;;;;;;5092580;28;20483;-69
2022/03/03 06:08:16;;;;;;;4.60;3.50;;;;;;;;;;5092841;28;20187;-69
2022/03/03 06:10:44;;;;;;;7.00;3.63;;;;;;;;;;5093337;28;20030;-71
2022/03/03 06:13:15;;;;;;;9.00;3.70;;;;;;;;;;5092823;28;20051;-70
2022/03/03 06:15:44;;;;;;;6.72;5.38;;;;;;;;;;5092884;28;20020;-70
2022/03/03 06:18:11;;;;;;;11.60;7.32;;;;;;;;;;5092497;28;20024;-70
2022/03/03 06:20:37;;;;;;;14.43;6.82;;;;;;;;;;5073959;28;20101;-70
2022/03/03 06:23:04;;;;;;;17.38;7.18;;;;;;;;;;5075421;28;20028;-70
2022/03/03 06:25:30;;;;;;;13.30;6.68;;;;;;;;;;5092487;28;20513;-71
2022/03/03 06:27:56;;;;;;;8.38;6.88;;;;;;;;;;5092438;28;20035;-72
2022/03/03 06:30:22;;;;;;;10.27;7.60;;;;;;;;;;5092305;28;20020;-70
2022/03/03 06:32:49;;;;;;;10.32;6.88;;;;;;;;;;5091725;28;20383;-70
2022/03/03 06:35:16;;;;;;;8.73;7.22;;;;;;;;;;5092216;28;20460;-69
2022/03/03 06:37:42;;;;;;;10.43;7.28;;;;;;;;;;5093850;28;20016;-70
2022/03/03 06:40:08;;;;;;;9.30;7.20;;;;;;;;;;5096612;28;20028;-69
2022/03/03 06:42:34;;;;;;;10.52;7.15;;;;;;;;;;5096153;28;20379;-69
2022/03/03 06:45:00;;;;;;;9.43;7.50;;;;;;;;;;5081976;28;20479;-70
2022/03/03 06:47:26;;;;;;;12.85;7.70;;;;;;;;;;5096252;28;20057;-70
2022/03/03 06:49:52;;;;;;;9.43;6.88;;;;;;;;;;5077822;28;20052;-70
2022/03/03 06:52:23;;;;;;;8.60;6.75;;;;;;;;;;5096197;28;20028;-71
2022/03/03 06:54:51;;;;;;;11.95;7.07;;;;;;;;;;5101328;28;20051;-68
2022/03/03 06:57:20;;;;;;;10.68;7.50;;;;;;;;;;5087730;28;20020;-68
2022/03/03 06:59:46;;;;;;;15.75;8.30;;;;;;;;;;5099323;28;20024;-69
2022/03/03 07:02:13;;;;;;;16.02;7.53;;;;;;;;;;5099845;28;20040;-69
2022/03/03 07:04:40;;;;;;;25.08;8.45;;;;;;;;;;5102091;28;20027;-74
2022/03/03 07:07:10;;;;;;;13.45;8.10;;;;;;;;;;5103552;28;20032;-72
2022/03/03 07:09:37;;;;;;;11.35;7.80;;;;;;;;;;5103171;28;20344;-71
2022/03/03 07:12:07;;;;;;;12.05;7.38;;;;;;;;;;5103118;28;20028;-72
2022/03/03 07:14:36;;;;;;;9.95;8.13;;;;;;;;;;5085778;28;20035;-71
2022/03/03 07:17:04;;;;;;;11.80;7.47;;;;;;;;;;5094064;28;20118;-72
2022/03/03 07:19:39;;;;;;;10.57;7.63;;;;;;;;;;5096594;28;20038;-80
2022/03/03 07:22:17;;;;;;;10.18;7.38;;;;;;;;;;5095709;28;20421;-73
2022/03/03 07:24:48;;;;;;;15.00;7.45;;;;;;;;;;5077208;28;20020;-71
2022/03/03 07:27:24;;;;;;;11.15;7.40;;;;;;;;;;5095419;28;20024;-69
2022/03/03 07:29:58;;;;;;;18.80;7.53;;;;;;;;;;5090729;28;20039;-71
2022/03/03 07:32:32;;;;;;;16.48;7.35;;;;;;;;;;5093772;28;20024;-69
2022/03/03 07:35:01;;;;;;;17.52;7.35;;;;;;;;;;5093798;28;20400;-74
2022/03/03 07:37:31;;;;;;;7.72;6.93;;;;;;;;;;5094659;28;20035;-70
2022/03/03 07:40:00;;;;;;;11.38;7.13;;;;;;;;;;5095482;28;20126;-68
2022/03/03 07:42:26;;;;;;;13.98;7.30;;;;;;;;;;5094348;28;20078;-69
2022/03/03 07:44:52;;;;;;;9.75;7.30;;;;;;;;;;5075990;28;20584;-69
2022/03/03 07:47:18;;;;;;;21.90;7.35;;;;;;;;;;5095412;28;20465;-80
2022/03/03 07:49:46;;;;;;;17.77;6.75;;;;;;;;;;5094383;28;20024;-75
2022/03/03 07:52:12;;;;;;;18.38;7.53;;;;;;;;;;5095835;28;20038;-74
2022/03/03 07:54:38;;;;;;;16.20;7.43;;;;;;;;;;5095601;28;20024;-76
2022/03/03 07:57:06;;;;;;;14.60;7.20;;;;;;;;;;5095677;28;20789;-74
2022/03/03 07:59:33;;;;;;;12.27;6.13;;;;;;;;;;5077299;28;20328;-74
2022/03/03 08:02:01;;;;;;;15.98;7.53;;;;;;;;;;5094905;28;20093;-71
2022/03/03 08:04:29;;;;;;;22.02;7.88;;;;;;;;;;5095093;28;20455;-74
2022/03/03 08:06:57;;;;;;;27.02;7.72;;;;;;;;;;5092468;28;20028;-74
2022/03/03 08:09:24;;;;;;;25.60;7.55;;;;;;;;;;5095376;28;20479;-73
2022/03/03 08:11:52;;;;;;;21.15;7.65;;;;;;;;;;5095115;28;20030;-74
2022/03/03 08:14:18;;;;;;;24.42;8.15;;;;;;;;;;5077100;28;20023;-74
2022/03/03 08:16:46;;;;;;;23.77;7.80;;;;;;;;;;5094363;28;20028;-74
2022/03/03 08:19:13;;;;;;;28.25;8.30;;;;;;;;;;5094643;28;20036;-72
2022/03/03 08:21:39;;;;;;;27.25;8.40;;;;;;;;;;5077639;28;20053;-75
2022/03/03 08:24:06;;;;;;;29.20;8.27;;;;;;;;;;5094999;28;20031;-69
2022/03/03 08:26:33;;;;;;;20.80;9.35;;;;;;;;;;5094159;28;20103;-74
2022/03/03 08:28:59;;;;;;;19.55;8.75;;;;;;;;;;5089906;28;20050;-75
2022/03/03 08:31:45;;;;;;;27.13;8.80;;;;;;;;;;5092974;28;20020;-76
2022/03/03 08:34:16;;;;;;;35.83;10.20;;;;;;;;;;5083782;28;20399;-72
2022/03/03 08:36:48;;;;;;;28.13;10.50;;;;;;;;;;5092850;28;20028;-73
2022/03/03 08:39:15;;;;;;;28.33;9.95;;;;;;;;;;5093915;28;20023;-69
2022/03/03 08:41:43;;;;;;;22.23;9.98;;;;;;;;;;5066598;28;20036;-75
2022/03/03 08:44:09;;;;;;;31.75;10.30;;;;;;;;;;5088527;28;20123;-73
2022/03/03 08:46:37;;;;;;;30.10;10.85;;;;;;;;;;5078142;28;20029;-69
2022/03/03 08:49:04;;;;;;;25.38;10.10;;;;;;;;;;5081545;28;20032;-69
2022/03/03 08:51:31;;;;;;;22.77;10.27;;;;;;;;;;5090032;28;20024;-69
2022/03/03 08:53:57;;;;;;;25.23;11.25;;;;;;;;;;5081618;28;20020;-71
2022/03/03 08:56:23;;;;;;;24.10;11.23;;;;;;;;;;5089910;28;20027;-70
2022/03/03 08:58:50;;;;;;;35.03;10.98;;;;;;;;;;5083165;28;20032;-76
2022/03/03 09:01:16;;;;;;;26.65;10.73;;;;;;;;;;5090054;28;20036;-75
2022/03/03 09:03:43;;;;;;;29.63;10.57;;;;;;;;;;5084860;28;20131;-75
2022/03/03 09:06:13;;;;;;;32.75;10.20;;;;;;;;;;5075058;28;20666;-69
2022/03/03 09:08:39;;;;;;;48.97;10.35;;;;;;;;;;5089338;28;20391;-67
2022/03/03 09:11:05;;;;;;;30.23;10.25;;;;;;;;;;5065793;28;20077;-74
2022/03/03 09:13:31;;;;;;;21.10;10.32;;;;;;;;;;5091656;28;20385;-68
2022/03/03 09:15:58;;;;;;;26.30;10.18;;;;;;;;;;5085319;28;20024;-76
2022/03/03 09:18:24;;;;;;;40.17;10.65;;;;;;;;;;5087780;28;20478;-70
2022/03/03 09:20:50;;;;;;;21.85;9.70;;;;;;;;;;5078525;28;20081;-68
2022/03/03 09:23:16;;;;;;;20.08;8.93;;;;;;;;;;5092456;28;20502;-69
2022/03/03 09:25:42;;;;;;;18.13;9.70;;;;;;;;;;5083080;28;20016;-70
2022/03/03 09:28:08;;;;;;;22.20;9.95;;;;;;;;;;5089708;28;20024;-69
2022/03/03 09:30:34;;;;;;;35.33;10.30;;;;;;;;;;5075737;28;20032;-70
2022/03/03 09:33:01;;;;;;;17.45;9.00;;;;;;;;;;5083647;28;20413;-73
2022/03/03 09:35:27;;;;;;;16.40;9.07;;;;;;;;;;5078885;28;20025;-70
2022/03/03 09:37:53;;;;;;;21.95;8.98;;;;;;;;;;5083144;28;20030;-69
2022/03/03 09:40:19;;;;;;;24.30;9.45;;;;;;;;;;5092093;28;20101;-68
2022/03/03 09:42:56;;;;;;;18.60;9.52;;;;;;;;;;5076494;28;20098;-70
2022/03/03 09:45:22;;;;;;;28.17;9.73;;;;;;;;;;5054928;28;20032;-70
2022/03/03 09:47:52;;;;;;;16.95;9.50;;;;;;;;;;5091145;28;20062;-71
2022/03/03 09:50:19;;;;;;;18.30;9.50;;;;;;;;;;5093442;28;20042;-82
2022/03/03 09:52:45;;;;;;;18.48;9.07;;;;;;;;;;5093527;28;20119;-82
2022/03/03 09:55:11;;;;;;;20.30;9.35;;;;;;;;;;5093757;28;20046;-78
2022/03/03 09:57:38;;;;;;;21.75;8.68;;;;;;;;;;5067441;28;20345;-84
2022/03/03 10:00:07;;;;;;;20.30;9.15;;;;;;;;;;5074024;28;20055;-81
2022/03/03 10:02:33;;;;;;;21.17;9.27;;;;;;;;;;5087508;28;20040;-84
2022/03/03 10:04:59;;;;;;;25.17;9.20;;;;;;;;;;5093903;28;20061;-78
2022/03/03 10:07:25;;;;;;;23.42;9.25;;;;;;;;;;5093369;28;20085;-81
2022/03/03 10:10:02;;;;;;;18.17;9.30;;;;;;;;;;5075346;28;20021;-80
2022/03/03 10:12:30;;;;;;;25.85;9.63;;;;;;;;;;5092759;28;20486;-79
2022/03/03 10:15:00;;;;;;;31.30;10.65;;;;;;;;;;5075066;28;20047;-69
2022/03/03 10:17:36;;;;;;;19.27;8.40;;;;;;;;;;5084108;28;20025;-72
2022/03/03 10:20:04;;;;;;;18.02;8.75;;;;;;;;;;5076742;28;20036;-77
2022/03/03 10:22:38;;;;;;;19.40;8.73;;;;;;;;;;5076341;28;20087;-72
2022/03/03 10:25:04;;;;;;;17.80;8.88;;;;;;;;;;5054758;28;20036;-69
2022/03/03 10:27:31;;;;;;;20.45;8.45;;;;;;;;;;5089855;28;20133;-68
2022/03/03 10:29:57;;;;;;;18.27;9.15;;;;;;;;;;5092489;28;20032;-68
2022/03/03 10:32:24;;;;;;;14.98;9.02;;;;;;;;;;5089678;28;20433;-66
2022/03/03 10:34:53;;;;;;;13.43;8.35;;;;;;;;;;5088724;28;20074;-71
2022/03/03 10:37:22;;;;;;;17.08;8.00;;;;;;;;;;5084303;28;20118;-72
2022/03/03 10:39:49;;;;;;;14.82;8.57;;;;;;;;;;5089342;28;20020;-72
2022/03/03 10:42:19;;;;;;;20.50;8.60;;;;;;;;;;5085992;28;20089;-72
2022/03/03 10:44:45;;;;;;;16.17;8.68;;;;;;;;;;5082564;28;20024;-72
2022/03/03 10:47:12;;;;;;;20.75;7.90;;;;;;;;;;5058477;28;20016;-70
2022/03/03 10:49:45;;;;;;;23.60;8.40;;;;;;;;;;5092822;28;20016;-72
2022/03/03 10:52:11;;;;;;;17.92;8.55;;;;;;;;;;5088316;28;20016;-71
2022/03/03 10:54:51;;;;;;;16.42;7.38;;;;;;;;;;5082533;28;20024;-71
2022/03/03 10:57:34;;;;;;;23.77;8.40;;;;;;;;;;5092290;28;20025;-72
2022/03/03 11:00:00;;;;;;;14.45;7.97;;;;;;;;;;5089402;28;20055;-70
2022/03/03 11:02:30;;;;;;;16.17;7.85;;;;;;;;;;5093881;28;20032;-71
2022/03/03 11:04:56;;;;;;;12.40;7.18;;;;;;;;;;5090734;28;20131;-66
2022/03/03 11:07:23;;;;;;;14.65;8.00;;;;;;;;;;5094320;28;20101;-67
2022/03/03 11:09:52;;;;;;;11.45;7.95;;;;;;;;;;5099827;28;20031;-67
2022/03/03 11:12:19;;;;;;;11.13;7.05;;;;;;;;;;5099403;28;20382;-72
2022/03/03 11:14:45;;;;;;;11.73;7.68;;;;;;;;;;5073936;28;20026;-66
2022/03/03 11:17:11;;;;;;;14.00;7.53;;;;;;;;;;5101009;28;20093;-66
2022/03/03 11:19:38;;;;;;;12.18;7.40;;;;;;;;;;5081946;28;20020;-67
2022/03/03 11:22:05;;;;;;;13.27;7.40;;;;;;;;;;5098778;28;20109;-66
2022/03/03 11:24:33;;;;;;;10.73;7.03;;;;;;;;;;5081406;28;20064;-68
2022/03/03 11:27:02;;;;;;;11.98;6.60;;;;;;;;;;5062778;28;20123;-71
2022/03/03 11:29:29;;;;;;;23.17;6.70;;;;;;;;;;5067855;28;20047;-70
2022/03/03 11:32:03;;;;;;;15.10;6.68;;;;;;;;;;5082376;28;20032;-71
2022/03/03 11:34:32;;;;;;;18.95;6.47;;;;;;;;;;5073214;28;20028;-70
2022/03/03 11:37:04;;;;;;;18.88;6.18;;;;;;;;;;5097088;28;20031;-70
2022/03/03 11:39:45;;;;;;;12.18;6.60;;;;;;;;;;5082745;28;20098;-71
2022/03/03 11:42:17;;;;;;;12.85;6.25;;;;;;;;;;5112634;28;20093;-71
2022/03/03 11:44:43;;;;;;;14.70;6.60;;;;;;;;;;5100654;28;20024;-71
2022/03/03 11:47:20;;;;;;;14.43;5.90;;;;;;;;;;5099785;28;20085;-71
2022/03/03 11:50:03;;;;;;;9.52;5.80;;;;;;;;;;5106572;28;20508;-70
2022/03/03 11:52:30;;;;;;;13.93;6.15;;;;;;;;;;5099374;28;20030;-70
2022/03/03 11:54:57;;;;;;;9.23;6.07;;;;;;;;;;5083982;28;20103;-70
2022/03/03 11:57:27;;;;;;;12.40;5.70;;;;;;;;;;5100674;28;20079;-70
2022/03/03 11:59:54;;;;;;;15.77;6.25;;;;;;;;;;5093426;28;20406;-69
2022/03/03 12:02:27;;;;;;;15.43;6.10;;;;;;;;;;5079568;28;20036;-71
2022/03/03 12:05:12;;;;;;;13.18;5.05;;;;;;;;;;5073200;28;20115;-72
2022/03/03 12:07:39;;;;;;;10.20;5.75;;;;;;;;;;5094769;28;20099;-71
2022/03/03 12:10:19;;;;;;;11.13;5.38;;;;;;;;;;5083862;28;20020;-72
2022/03/03 12:12:45;;;;;;;10.93;5.63;;;;;;;;;;5068481;28;20020;-72
2022/03/03 12:15:11;;;;;;;11.85;5.50;;;;;;;;;;5080137;28;20020;-71
2022/03/03 12:17:48;;;;;;;12.18;5.85;;;;;;;;;;5083106;28;20035;-73
2022/03/03 12:23:04;;;;;;;13.15;5.30;;;;;;;;;;5080592;28;20247;-70
2022/03/03 12:25:58;;;;;;;12.38;5.53;;;;;;;;;;5081026;28;20029;-75
2022/03/03 12:28:35;;;;;;;11.40;5.65;;;;;;;;;;5074948;28;20443;-74
2022/03/03 12:31:02;;;;;;;6.95;4.90;;;;;;;;;;5074961;28;20028;-75
2022/03/03 12:33:29;;;;;;;10.38;5.18;;;;;;;;;;5074965;28;20436;-75
2022/03/03 12:36:00;;;;;;;12.30;5.50;;;;;;;;;;5066589;28;20032;-76
2022/03/03 12:38:26;;;;;;;10.98;4.93;;;;;;;;;;5056869;28;20047;-71
2022/03/03 12:40:53;;;;;;;9.13;4.90;;;;;;;;;;5074521;28;20074;-74
2022/03/03 12:43:19;;;;;;;6.63;4.47;;;;;;;;;;5074968;28;20029;-75
2022/03/03 12:45:46;;;;;;;10.05;5.18;;;;;;;;;;5074910;28;20425;-75
2022/03/03 12:48:13;;;;;;;8.52;4.82;;;;;;;;;;5074712;28;20024;-74
2022/03/03 12:50:40;;;;;;;6.13;4.47;;;;;;;;;;5081649;28;20020;-75
2022/03/03 12:53:13;;;;;;;11.68;5.07;;;;;;;;;;5094586;28;20089;-74
2022/03/03 12:55:49;;;;;;;7.00;5.03;;;;;;;;;;5107466;28;20500;-75
2022/03/03 12:58:16;;;;;;;6.63;4.43;;;;;;;;;;5115091;28;20043;-74
2022/03/03 13:00:46;;;;;;;8.43;5.10;;;;;;;;;;5082987;28;20095;-74
2022/03/03 13:03:13;;;;;;;12.10;4.88;;;;;;;;;;5098430;28;20435;-76
2022/03/03 13:05:41;;;;;;;9.98;4.93;;;;;;;;;;5100261;28;20054;-68
2022/03/03 13:08:08;;;;;;;8.43;4.75;;;;;;;;;;5098467;28;20027;-64
2022/03/03 13:10:35;;;;;;;10.82;4.63;;;;;;;;;;5089784;28;20436;-74
2022/03/03 13:13:01;;;;;;;6.68;4.47;;;;;;;;;;5106162;28;20024;-77
2022/03/03 13:15:34;;;;;;;9.73;4.80;;;;;;;;;;5094819;28;20025;-76
2022/03/03 13:18:03;;;;;;;10.65;4.60;;;;;;;;;;5082061;28;20651;-76
2022/03/03 13:20:33;;;;;;;12.50;4.85;;;;;;;;;;5058653;28;20057;-66
2022/03/03 13:22:59;;;;;;;5.82;4.85;;;;;;;;;;5078918;28;20032;-67
2022/03/03 13:25:26;;;;;;;7.18;4.70;;;;;;;;;;5082882;28;20028;-67
2022/03/03 13:27:52;;;;;;;7.90;4.53;;;;;;;;;;5066904;28;20027;-69
2022/03/03 13:30:18;;;;;;;5.97;4.20;;;;;;;;;;5088394;28;20040;-76
2022/03/03 13:32:45;;;;;;;7.40;4.47;;;;;;;;;;5086840;28;20024;-79
2022/03/03 13:35:12;;;;;;;7.57;4.68;;;;;;;;;;5086363;28;20025;-78
2022/03/03 13:37:38;;;;;;;6.30;5.05;;;;;;;;;;5074051;28;20024;-76
2022/03/03 13:40:18;;;;;;;4.55;3.53;;;;;;;;;;5090829;28;20036;-77
2022/03/03 13:42:44;;;;;;;4.50;4.03;;;;;;;;;;5083042;28;20036;-75
2022/03/03 13:45:11;;;;;;;6.80;4.20;;;;;;;;;;5088057;28;20027;-76
2022/03/03 13:47:41;;;;;;;6.88;4.30;;;;;;;;;;5093721;28;20436;-72
2022/03/03 13:50:08;;;;;;;4.45;3.78;;;;;;;;;;5094630;28;20046;-76
2022/03/03 13:52:35;;;;;;;19.58;5.78;;;;;;;;;;5075483;28;20111;-70
2022/03/03 13:55:11;;;;;;;29.00;5.93;;;;;;;;;;5093605;28;20059;-77
2022/03/03 13:57:37;;;;;;;21.85;6.13;;;;;;;;;;5104160;28;20020;-78
2022/03/03 14:00:18;;;;;;;24.90;5.60;;;;;;;;;;5103108;28;20102;-81
2022/03/03 14:02:56;;;;;;;26.50;5.22;;;;;;;;;;5096177;28;20028;-83
2022/03/03 14:05:31;;;;;;;21.10;5.70;;;;;;;;;;5097778;28;20063;-79
2022/03/03 14:07:58;;;;;;;17.88;5.55;;;;;;;;;;5071819;28;20032;-75
2022/03/03 14:10:24;;;;;;;24.15;5.68;;;;;;;;;;5086350;28;20395;-69
2022/03/03 14:13:04;;;;;;;55.72;6.10;;;;;;;;;;5108203;28;20028;-72
2022/03/03 14:15:30;;;;;;;37.08;6.40;;;;;;;;;;5096021;28;20418;-71
2022/03/03 14:17:56;;;;;;;44.70;6.32;;;;;;;;;;5099514;28;20036;-71
2022/03/03 14:20:22;;;;;;;56.17;6.57;;;;;;;;;;5092059;28;20051;-73
2022/03/03 14:22:58;;;;;;;70.78;6.80;;;;;;;;;;5082320;28;20484;-68
2022/03/03 14:25:28;;;;;;;56.75;6.45;;;;;;;;;;5088255;28;20025;-71
2022/03/03 14:27:54;;;;;;;30.33;5.13;;;;;;;;;;5076248;28;20124;-69
2022/03/03 14:30:22;;;;;;;46.40;6.85;;;;;;;;;;5076692;28;20037;-76
2022/03/03 14:32:48;;;;;;;49.15;14.85;;;;;;;;;;5089428;28;20514;-73
2022/03/03 14:35:15;;;;;;;84.18;25.15;;;;;;;;;;5083366;28;20064;-70
2022/03/03 14:37:42;;;;;;;139.80;43.50;;;;;;;;;;5078572;28;20021;-72
2022/03/03 14:40:09;;;;;;;208.15;67.45;;;;;;;;;;5084331;28;20023;-72
2022/03/03 14:42:35;;;;;;;208.98;71.47;;;;;;;;;;5097452;28;20033;-71
2022/03/03 14:45:01;;;;;;;218.50;79.53;;;;;;;;;;5090059;28;20024;-69